Lake Oke West End current weather conditions

sailwx.info

Wind from 066 at 5 knots gusting 7

Air temperature 28.6° C
Dewpoint 25.3° C
Water temperature -7999.0° C

Last reported at 2020-Sep-28 14:30 UTC.
Time now 2020-Sep-28 15:18 UTC

Location: N 26°58' W 080°56'.
View on Google Maps.

See reports from other nearby stations

  
Tides and Currents Weather Stations Pressure Air Temp Water Temp Dewpoint Dewpoint Depression Visibility Wind Speed Wind Dir Waves Ship Positions
date/time (UTC)wind fromknots sea level pressurealtimeterstation pressurevisibilityair tempwater tempwave heightnotes
2020-Sep-28 14:30 066 5 gusting 7 28.6-7999.0
2020-Sep-28 14:15 064 5 gusting 7 28.6-7999.0
2020-Sep-28 14:00 070 5 gusting 6 28.5-7999.0
2020-Sep-28 13:30 062 5 gusting 8 28.3-7999.0
2020-Sep-28 13:15 075 3 gusting 5 28.3-7999.0
2020-Sep-28 13:00 071 3 gusting 5 28.2-7999.0
2020-Sep-28 12:30 064 5 gusting 7 28.3-7999.0
2020-Sep-28 12:15 065 4 gusting 6 28.2-7999.0
2020-Sep-28 12:00 065 6 gusting 9 28.0-7999.0
2020-Sep-28 11:45 067 7 gusting 9 27.9-7999.0
2020-Sep-28 11:30 066 7 gusting 8 27.7-7999.0
2020-Sep-28 11:00 058 6 gusting 7 27.7-7999.0
2020-Sep-28 10:45 065 6 gusting 7 27.8-7999.0
2020-Sep-28 10:30 066 7 gusting 9 27.9-7999.0
2020-Sep-28 10:15 063 8 gusting 9 27.8-7999.0
2020-Sep-28 10:00 059 7 gusting 8 27.9-7999.0
2020-Sep-28 09:45 059 7 gusting 8 27.9-7999.0
2020-Sep-28 09:30 054 6 gusting 7 27.8-7999.0
2020-Sep-28 09:15 052 6 gusting 7 27.9-7999.0
2020-Sep-28 09:00 053 6 gusting 7 27.8-7999.0
2020-Sep-28 08:45 050 6 gusting 7 27.9-7999.0
2020-Sep-28 08:30 053 7 gusting 8 27.9-7999.0
2020-Sep-28 08:15 052 7 gusting 8 27.9-7999.0
2020-Sep-28 08:00 047 7 gusting 8 27.9-7999.0
2020-Sep-28 07:45 044 8 gusting 9 27.9-7999.0
2020-Sep-28 07:30 042 8 gusting 9 28.0-7999.0
2020-Sep-28 07:15 039 8 gusting 9 28.0-7999.0
2020-Sep-28 07:00 038 8 gusting 9 27.9-7999.0
2020-Sep-28 06:45 039 8 gusting 9 28.1-7999.0
2020-Sep-28 06:30 038 8 gusting 9 28.1-7999.0
2020-Sep-28 06:15 037 8 gusting 10 28.1-7999.0
2020-Sep-28 06:00 038 8 gusting 9 28.1-7999.0
2020-Sep-28 05:30 037 7 gusting 8 28.2-7999.0
2020-Sep-28 05:15 034 6 gusting 7 28.2-7999.0
2020-Sep-28 05:00 027 6 gusting 7 28.2-7999.0
2020-Sep-28 04:30 031 10 gusting 13 28.3-7999.0
2020-Sep-28 04:15 032 13 gusting 15 28.3-7999.0
2020-Sep-28 04:00 036 13 gusting 16 28.4-7999.0
2020-Sep-28 03:45 034 12 gusting 16 28.4-7999.0
2020-Sep-28 03:30 029 6 gusting 7 28.4-7999.0
2020-Sep-28 03:15 028 6 gusting 7 28.4-7999.0
2020-Sep-28 02:45 028 5 gusting 7 28.5-7999.0
2020-Sep-28 02:30 031 6 gusting 7 28.6-7999.0
2020-Sep-28 02:15 036 7 gusting 8 28.6-7999.0
2020-Sep-28 02:00 035 7 gusting 8 28.6-7999.0
2020-Sep-28 01:45 039 7 gusting 9 28.7-7999.0
2020-Sep-28 01:30 038 8 gusting 9 28.8-7999.0
2020-Sep-28 01:15 038 8 gusting 9 28.8-7999.0
2020-Sep-28 01:00 040 8 gusting 9 28.9-7999.0
2020-Sep-28 00:30 036 7 gusting 9 29.0-7999.0
2020-Sep-28 00:15 029 6 gusting 8 28.9-7999.0
2020-Sep-28 00:00 025 4 gusting 6 28.8-7999.0
2020-Sep-27 23:45 028 5 gusting 6 28.6-7999.0
2020-Sep-27 23:30 032 6 gusting 7 28.6-7999.0
2020-Sep-27 23:15 039 5 gusting 7 28.5-7999.0
2020-Sep-27 23:00 042 5 gusting 7 28.3-7999.0
2020-Sep-27 22:45 045 7 gusting 9 28.1-7999.0
2020-Sep-27 22:30 043 8 gusting 10 28.4-7999.0
2020-Sep-27 22:15 035 8 gusting 10 28.8-7999.0
2020-Sep-27 22:00 028 8 gusting 9 28.6-7999.0
2020-Sep-27 21:45 026 8 gusting 9 28.8-7999.0
2020-Sep-27 21:30 018 9 gusting 12 29.2-7999.0
2020-Sep-27 21:15 031 9 gusting 11 29.7-7999.0
2020-Sep-27 21:00 034 8 gusting 10 30.2-7999.0
2020-Sep-27 20:45 029 4 gusting 6 30.4-7999.0
2020-Sep-27 20:30 028 4 gusting 6 30.4-7999.0
2020-Sep-27 20:15 028 3 gusting 6 30.9-7999.0
2020-Sep-27 20:00 089 0 gusting 0 32.3-7999.0
2020-Sep-27 19:45 098 0 gusting 0 32.1-7999.0
2020-Sep-27 19:30 106 0 gusting 0 32.1-7999.0
2020-Sep-27 19:15 109 0 gusting 0 31.2-7999.0
2020-Sep-27 19:00 117 0 gusting 0 30.2-7999.0
2020-Sep-27 18:45 096 0 gusting 0 30.3-7999.0
2020-Sep-27 18:30 085 0 gusting 0 30.5-7999.0
2020-Sep-27 18:15 085 0 gusting 0 29.6-7999.0
2020-Sep-27 18:00 096 0 gusting 0 29.5-7999.0
2020-Sep-27 17:30 096 0 gusting 0 29.6-7999.0
2020-Sep-27 17:15 039 0 gusting 0 29.2-7999.0
2020-Sep-27 17:00 006 0 gusting 0 28.7-7999.0
2020-Sep-27 16:45 015 0 gusting 0 28.2-7999.0
2020-Sep-27 16:30 014 0 gusting 1 28.4-7999.0
2020-Sep-27 16:15 021 0 gusting 0 28.4-7999.0
2020-Sep-27 15:45 015 0 gusting 1 27.9-7999.0
2020-Sep-27 15:30 016 0 gusting 0 27.7-7999.0
2020-Sep-27 15:15 011 0 gusting 0 27.4-7999.0
2020-Sep-27 15:00 005 0 gusting 0 27.1-7999.0
2020-Sep-27 14:45 006 0 gusting 0 26.9-7999.0
2020-Sep-27 14:30 009 0 gusting 1 27.0-7999.0
2020-Sep-27 14:15 249 0 gusting 0 26.7-7999.0
2020-Sep-27 13:45 278 0 gusting 0 26.3-7999.0
2020-Sep-27 13:30 279 0 gusting 0 26.1-7999.0
2020-Sep-27 13:15 277 0 gusting 0 25.8-7999.0
2020-Sep-27 13:00 278 0 gusting 0 25.5-7999.0
2020-Sep-27 12:45 279 0 gusting 0 25.3-7999.0
2020-Sep-27 12:30 281 0 gusting 0 25.2-7999.0
2020-Sep-27 12:15 291 0 gusting 0 25.1-7999.0
2020-Sep-27 11:30 256 0 gusting 0 25.2-7999.0
2020-Sep-27 11:15 267 0 gusting 0 26.1-7999.0
2020-Sep-27 11:00 196 0 gusting 0 27.0-7999.0
2020-Sep-27 10:45 011 0 gusting 0 27.1-7999.0
2020-Sep-27 10:30 012 0 gusting 0 27.0-7999.0
2020-Sep-27 10:15 015 0 gusting 0 26.9-7999.0
2020-Sep-27 10:00 015 0 gusting 0 27.0-7999.0
2020-Sep-27 09:45 015 0 gusting 0 27.0-7999.0
2020-Sep-27 09:30 015 0 gusting 0 26.9-7999.0
2020-Sep-27 09:15 015 0 gusting 0 26.9-7999.0
2020-Sep-27 09:00 013 0 gusting 0 26.9-7999.0
2020-Sep-27 08:45 007 0 gusting 0 26.8-7999.0
2020-Sep-27 08:30 010 0 gusting 0 26.8-7999.0
2020-Sep-27 08:15 020 0 gusting 0 26.6-7999.0
2020-Sep-27 08:00 003 0 gusting 0 26.6-7999.0
2020-Sep-27 07:30 177 0 gusting 0 26.6-7999.0
2020-Sep-27 07:15 289 0 gusting 0 26.6-7999.0
2020-Sep-27 07:00 065 0 gusting 0 26.4-7999.0
2020-Sep-27 06:30 333 0 gusting 0 25.6-7999.0
2020-Sep-27 06:15 310 0 gusting 0 25.1-7999.0
2020-Sep-27 06:00 297 0 gusting 0 24.8-7999.0
2020-Sep-27 05:45 273 0 gusting 0 24.6-7999.0
2020-Sep-27 05:30 261 0 gusting 0 24.6-7999.0
2020-Sep-27 05:15 232 0 gusting 0 24.7-7999.0
2020-Sep-27 05:00 269 0 gusting 0 24.9-7999.0
2020-Sep-27 04:45 299 0 gusting 0 25.0-7999.0
2020-Sep-27 04:30 264 0 gusting 5 24.6-7999.0
2020-Sep-27 04:15 253 1 gusting 8 24.8-7999.0
2020-Sep-27 04:00 232 0 gusting 0 24.7-7999.0
2020-Sep-27 03:45 220 0 gusting 0 24.7-7999.0
2020-Sep-27 03:30 231 0 gusting 0 25.1-7999.0
2020-Sep-27 03:15 236 0 gusting 6 25.3-7999.0
2020-Sep-27 02:45 201 0 gusting 0 25.4-7999.0
2020-Sep-27 02:30 187 0 gusting 0 24.7-7999.0
2020-Sep-27 02:15 183 0 gusting 0 24.3-7999.0
2020-Sep-27 02:00 144 0 gusting 0 24.2-7999.0
2020-Sep-27 01:45 134 0 gusting 0 24.1-7999.0
2020-Sep-27 01:30 153 0 gusting 4 24.1-7999.0
2020-Sep-27 01:15 150 0 gusting 3 24.0-7999.0
2020-Sep-27 01:00 236 0 gusting 2 24.5-7999.0
2020-Sep-27 00:30 073 6 gusting 21 25.4-7999.0
2020-Sep-27 00:15 135 1 gusting 5 29.1-7999.0
2020-Sep-27 00:00 144 2 gusting 4 29.3-7999.0
2020-Sep-26 23:45 128 2 gusting 6 29.5-7999.0
2020-Sep-26 23:30 113 0 gusting 0 29.4-7999.0
2020-Sep-26 23:15 113 0 gusting 2 29.5-7999.0
2020-Sep-26 23:00 107 0 gusting 0 29.6-7999.0
2020-Sep-26 22:30 104 0 gusting 5 29.6-7999.0
2020-Sep-26 22:15 100 0 gusting 4 29.6-7999.0
2020-Sep-26 22:00 098 0 gusting 5 29.6-7999.0
2020-Sep-26 21:45 094 2 gusting 5 29.9-7999.0
2020-Sep-26 21:30 077 4 gusting 5 29.8-7999.0
2020-Sep-26 21:15 080 4 gusting 6 30.1-7999.0
2020-Sep-26 21:00 068 2 gusting 4 30.1-7999.0
2020-Sep-26 20:30 081 0 gusting 0 30.2-7999.0
2020-Sep-26 20:15 130 0 gusting 0 30.2-7999.0
2020-Sep-26 20:00 171 2 gusting 11 30.3-7999.0
2020-Sep-26 19:45 194 1 gusting 4 30.3-7999.0
2020-Sep-26 19:30 062 0 gusting 3 30.2-7999.0
2020-Sep-26 19:15 038 0 gusting 0 30.3-7999.0
2020-Sep-26 19:00 029 0 gusting 0 30.3-7999.0
2020-Sep-26 18:45 036 0 gusting 0 30.2-7999.0
2020-Sep-26 18:30 064 3 gusting 21 30.4-7999.0
2020-Sep-26 18:15 267 0 gusting 2 30.9-7999.0
2020-Sep-26 18:00 250 1 gusting 3 30.6-7999.0
2020-Sep-26 17:45 243 0 gusting 5 30.5-7999.0
2020-Sep-26 17:30 229 3 gusting 5 30.1-7999.0
2020-Sep-26 17:15 220 2 gusting 4 29.9-7999.0
2020-Sep-26 17:00 226 3 gusting 5 29.7-7999.0
2020-Sep-26 16:45 248 2 gusting 6 29.8-7999.0
2020-Sep-26 16:30 246 5 gusting 7 29.7-7999.0
2020-Sep-26 16:15 239 2 gusting 7 29.5-7999.0
2020-Sep-26 16:00 237 5 gusting 8 29.2-7999.0
2020-Sep-26 15:30 235 3 gusting 6 28.9-7999.0
2020-Sep-26 15:15 234 6 gusting 7 28.6-7999.0
2020-Sep-26 15:00 224 6 gusting 7 28.3-7999.0